Time,TemperatureF,DewpointF,PressureIn,WindDirection,WindDirectionDegrees,WindSpeedMPH,WindSpeedGustMPH,Humidity,HourlyPrecipIn,Conditions,Clouds,dailyrainin,SoftwareType,DateUTC
2013-08-28 00:00:00,63.9,63.9,29.90,ENE,65,2.5,2.5,100,0.00,,CLR,0.00,VWS V14.01,2013-08-28 04:00:00,
2013-08-28 00:02:00,63.9,63.9,29.90,ENE,65,2.5,2.5,100,0.00,,FEW250,0.00,VWS V14.01,2013-08-28 04:02:00,
2013-08-28 00:04:00,63.9,63.9,29.90,ENE,65,2.5,2.5,100,0.00,,FEW250,0.00,VWS V14.01,2013-08-28 04:04:00,
2013-08-28 00:10:00,64.0,64.0,29.90,ENE,65,2.5,2.5,100,0.00,,FEW250,0.00,VWS V14.01,2013-08-28 04:10:00,
2013-08-28 00:14:00,63.8,63.8,29.90,ENE,65,2.5,2.5,100,0.00,,FEW250,0.00,VWS V14.01,2013-08-28 04:14:00,
2013-08-28 00:20:00,63.8,63.8,29.90,ENE,65,2.5,2.5,100,0.00,,FEW250,0.00,VWS V14.01,2013-08-28 04:20:00,
2013-08-28 00:26:00,63.6,63.6,29.90,ENE,65,2.5,2.5,100,0.00,,FEW250,0.00,VWS V14.01,2013-08-28 04:26:00,
2013-08-28 00:28:00,63.6,63.6,29.90,ENE,65,2.5,2.5,100,0.00,,FEW250,0.00,VWS V14.01,2013-08-28 04:28:00,
2013-08-28 00:34:00,63.6,63.6,29.90,ENE,65,2.5,2.5,100,0.00,,FEW250,0.00,VWS V14.01,2013-08-28 04:34:00,
2013-08-28 00:40:00,63.7,63.7,29.90,ENE,65,2.5,2.5,100,0.00,,FEW250,0.00,VWS V14.01,2013-08-28 04:40:00,
2013-08-28 00:46:00,63.5,63.5,29.91,ENE,65,2.5,2.5,100,0.00,,FEW250,0.00,VWS V14.01,2013-08-28 04:46:00,
2013-08-28 00:52:00,63.7,63.7,29.91,ENE,65,2.5,2.5,100,0.00,,FEW250,0.00,VWS V14.01,2013-08-28 04:52:00,
2013-08-28 00:58:00,63.5,63.5,29.90,ENE,65,2.5,2.5,100,0.00,,FEW250,0.00,VWS V14.01,2013-08-28 04:58:00,
2013-08-28 01:04:00,63.2,63.2,29.90,ENE,65,2.5,2.5,100,0.00,,,0.00,VWS V14.01,2013-08-28 05:04:00,
2013-08-28 01:10:00,63.3,63.3,29.90,ENE,65,2.5,2.5,100,0.00,,,0.00,VWS V14.01,2013-08-28 05:10:00,
2013-08-28 01:16:00,63.1,63.1,29.90,ENE,65,2.5,2.5,100,0.00,,,0.00,VWS V14.01,2013-08-28 05:16:00,
2013-08-28 01:22:00,63.2,63.2,29.89,ENE,65,2.5,2.5,100,0.00,,,0.00,VWS V14.01,2013-08-28 05:22:00,
2013-08-28 01:28:00,63.2,63.2,29.89,ENE,65,2.5,2.5,100,0.00,,,0.00,VWS V14.01,2013-08-28 05:28:00,
2013-08-28 01:34:00,62.7,62.7,29.89,ENE,65,2.5,2.5,100,0.00,,,0.00,VWS V14.01,2013-08-28 05:34:00,
2013-08-28 01:40:00,63.0,63.0,29.89,ENE,65,2.5,2.5,100,0.00,,,0.00,VWS V14.01,2013-08-28 05:40:00,
2013-08-28 01:46:00,63.0,63.0,29.89,ENE,65,2.5,2.5,100,0.00,,,0.00,VWS V14.01,2013-08-28 05:46:00,
2013-08-28 01:52:00,62.9,62.9,29.89,ENE,65,2.5,2.5,100,0.00,,,0.00,VWS V14.01,2013-08-28 05:52:00,
2013-08-28 01:58:00,62.8,62.8,29.89,ENE,65,2.5,2.5,100,0.00,,,0.00,VWS V14.01,2013-08-28 05:58:00,
2013-08-28 02:04:00,62.8,62.8,29.89,ENE,65,2.5,2.5,100,0.00,,,0.00,VWS V14.01,2013-08-28 06:04:00,
2013-08-28 02:10:00,63.0,63.0,29.88,ENE,65,2.5,2.5,100,0.00,,,0.00,VWS V14.01,2013-08-28 06:10:00,
2013-08-28 02:16:00,62.9,62.9,29.88,ENE,65,2.5,2.5,100,0.00,,,0.00,VWS V14.01,2013-08-28 06:16:00,
2013-08-28 02:22:00,62.9,62.9,29.88,ENE,65,2.5,2.5,100,0.00,,,0.00,VWS V14.01,2013-08-28 06:22:00,
2013-08-28 02:28:00,62.8,62.8,29.88,ENE,65,2.5,2.5,100,0.00,,,0.00,VWS V14.01,2013-08-28 06:28:00,
2013-08-28 02:34:00,62.9,62.9,29.88,ENE,65,2.5,2.5,100,0.00,,,0.00,VWS V14.01,2013-08-28 06:34:00,
2013-08-28 02:40:00,63.1,63.1,29.88,ENE,65,2.5,2.5,100,0.00,,,0.00,VWS V14.01,2013-08-28 06:40:00,
2013-08-28 02:46:00,63.0,63.0,29.88,ENE,65,2.5,2.5,100,0.00,,,0.00,VWS V14.01,2013-08-28 06:46:00,
2013-08-28 02:52:00,62.9,62.9,29.88,ENE,65,2.5,2.5,100,0.00,,,0.00,VWS V14.01,2013-08-28 06:52:00,
2013-08-28 02:58:00,63.0,63.0,29.88,ENE,65,2.5,2.5,100,0.00,,,0.00,VWS V14.01,2013-08-28 06:58:00,
2013-08-28 03:04:00,63.1,63.1,29.88,ENE,65,2.5,2.5,100,0.00,,,0.00,VWS V14.01,2013-08-28 07:04:00,
2013-08-28 03:10:00,63.0,63.0,29.88,ENE,65,2.5,2.5,100,0.00,,,0.00,VWS V14.01,2013-08-28 07:10:00,
2013-08-28 03:16:00,63.1,63.1,29.88,ENE,65,2.5,2.5,100,0.00,,,0.00,VWS V14.01,2013-08-28 07:16:00,
2013-08-28 03:22:00,62.7,62.7,29.87,ENE,65,2.5,2.5,100,0.00,,,0.00,VWS V14.01,2013-08-28 07:22:00,
2013-08-28 03:28:00,62.6,62.6,29.87,ENE,65,2.5,2.5,100,0.00,,,0.00,VWS V14.01,2013-08-28 07:28:00,
2013-08-28 03:34:00,62.6,62.6,29.88,ENE,65,2.5,2.5,100,0.00,,,0.00,VWS V14.01,2013-08-28 07:34:00,
2013-08-28 03:40:00,62.5,62.5,29.88,WNW,287,2.5,2.5,100,0.00,,,0.00,VWS V14.01,2013-08-28 07:40:00,
2013-08-28 03:46:00,62.5,62.5,29.88,WNW,287,2.5,2.5,100,0.00,,,0.00,VWS V14.01,2013-08-28 07:46:00,
2013-08-28 03:52:00,62.6,62.6,29.88,WNW,287,2.5,2.5,100,0.00,,,0.00,VWS V14.01,2013-08-28 07:52:00,
2013-08-28 03:58:00,62.3,62.3,29.87,WNW,287,2.5,2.5,100,0.00,,,0.00,VWS V14.01,2013-08-28 07:58:00,
2013-08-28 04:04:00,62.3,62.3,29.87,WNW,287,2.5,2.5,100,0.00,,,0.00,VWS V14.01,2013-08-28 08:04:00,
2013-08-28 04:10:00,62.4,62.4,29.87,East,100,2.5,2.5,100,0.00,,,0.00,VWS V14.01,2013-08-28 08:10:00,
2013-08-28 04:16:00,62.0,62.0,29.87,East,100,2.5,2.5,100,0.00,,,0.00,VWS V14.01,2013-08-28 08:16:00,
2013-08-28 04:22:00,62.2,62.2,29.87,East,100,2.5,2.5,100,0.00,,,0.00,VWS V14.01,2013-08-28 08:22:00,
2013-08-28 04:28:00,62.1,62.1,29.87,East,100,2.5,2.5,100,0.00,,,0.00,VWS V14.01,2013-08-28 08:28:00,
2013-08-28 04:34:00,61.8,61.8,29.87,East,100,2.5,2.5,100,0.00,,,0.00,VWS V14.01,2013-08-28 08:34:00,
2013-08-28 04:40:00,62.0,62.0,29.87,East,100,2.5,2.5,100,0.00,,,0.00,VWS V14.01,2013-08-28 08:40:00,
2013-08-28 04:46:00,61.5,61.5,29.87,East,100,2.5,2.5,100,0.00,,,0.00,VWS V14.01,2013-08-28 08:46:00,
2013-08-28 04:52:00,61.1,61.1,29.87,East,100,2.5,2.5,100,0.00,,,0.00,VWS V14.01,2013-08-28 08:52:00,
2013-08-28 04:58:00,61.0,61.0,29.88,East,100,2.5,2.5,100,0.00,,,0.00,VWS V14.01,2013-08-28 08:58:00,
2013-08-28 05:04:00,61.1,61.1,29.88,East,100,2.5,2.5,100,0.00,,,0.00,VWS V14.01,2013-08-28 09:04:00,
2013-08-28 05:10:00,61.4,61.4,29.88,East,100,2.5,2.5,100,0.00,,,0.00,VWS V14.01,2013-08-28 09:10:00,
2013-08-28 05:16:00,61.4,61.4,29.88,East,100,2.5,2.5,100,0.00,,,0.00,VWS V14.01,2013-08-28 09:16:00,
2013-08-28 05:22:00,61.3,61.3,29.88,East,100,2.5,2.5,100,0.00,,,0.00,VWS V14.01,2013-08-28 09:22:00,
2013-08-28 05:28:00,61.2,61.2,29.89,East,100,2.5,2.5,100,0.00,,,0.00,VWS V14.01,2013-08-28 09:28:00,
2013-08-28 05:34:00,61.2,61.2,29.89,East,100,2.5,2.5,100,0.00,,,0.00,VWS V14.01,2013-08-28 09:34:00,
2013-08-28 05:38:00,61.2,61.2,29.89,East,100,2.5,2.5,100,0.00,,,0.00,VWS V14.01,2013-08-28 09:38:00,
2013-08-28 05:44:00,61.3,61.3,29.89,East,100,2.5,2.5,100,0.00,,,0.00,VWS V14.01,2013-08-28 09:44:00,
2013-08-28 05:50:00,61.3,61.3,29.89,East,100,2.5,2.5,100,0.00,,,0.00,VWS V14.01,2013-08-28 09:50:00,
2013-08-28 05:56:00,61.5,61.5,29.89,East,100,2.5,2.5,100,0.00,,,0.00,VWS V14.01,2013-08-28 09:56:00,
2013-08-28 06:02:00,61.5,61.5,29.89,East,100,2.5,2.5,100,0.00,,,0.00,VWS V14.01,2013-08-28 10:02:00,
2013-08-28 06:08:00,61.5,61.5,29.89,East,100,2.5,2.5,100,0.00,,,0.00,VWS V14.01,2013-08-28 10:08:00,
2013-08-28 06:14:00,61.5,61.5,29.90,East,100,2.5,2.5,100,0.00,,,0.00,VWS V14.01,2013-08-28 10:14:00,
2013-08-28 06:20:00,61.7,61.7,29.90,East,100,2.5,2.5,100,0.00,,,0.00,VWS V14.01,2013-08-28 10:20:00,
2013-08-28 06:26:00,61.8,61.8,29.90,East,100,2.5,2.5,100,0.00,,,0.00,VWS V14.01,2013-08-28 10:26:00,
2013-08-28 06:32:00,62.1,62.1,29.90,East,100,2.5,2.5,100,0.00,,,0.00,VWS V14.01,2013-08-28 10:32:00,
2013-08-28 06:38:00,62.1,62.1,29.90,East,100,2.5,2.5,100,0.00,,,0.00,VWS V14.01,2013-08-28 10:38:00,
2013-08-28 06:44:00,62.2,62.2,29.91,East,100,2.5,2.5,100,0.00,,,0.00,VWS V14.01,2013-08-28 10:44:00,
2013-08-28 06:50:00,62.3,62.3,29.91,East,100,2.5,2.5,100,0.00,,,0.00,VWS V14.01,2013-08-28 10:50:00,
2013-08-28 06:56:00,62.5,62.5,29.91,East,100,2.5,2.5,100,0.00,,,0.00,VWS V14.01,2013-08-28 10:56:00,
2013-08-28 07:02:00,62.7,62.7,29.91,East,100,2.5,2.5,100,0.00,,,0.00,VWS V14.01,2013-08-28 11:02:00,
2013-08-28 07:08:00,63.0,63.0,29.91,East,100,2.5,2.5,100,0.00,,,0.00,VWS V14.01,2013-08-28 11:08:00,
2013-08-28 07:14:00,63.1,63.1,29.91,East,100,2.5,2.5,100,0.00,,,0.00,VWS V14.01,2013-08-28 11:14:00,
2013-08-28 07:20:00,63.0,63.0,29.91,East,100,2.5,2.5,100,0.00,,,0.00,VWS V14.01,2013-08-28 11:20:00,
2013-08-28 07:26:00,63.3,63.3,29.91,East,100,2.5,2.5,100,0.00,,,0.00,VWS V14.01,2013-08-28 11:26:00,
2013-08-28 07:32:00,63.3,63.3,29.92,East,100,2.5,2.5,100,0.00,,,0.00,VWS V14.01,2013-08-28 11:32:00,
2013-08-28 07:38:00,63.4,63.4,29.92,East,100,2.5,2.5,100,0.00,,,0.00,VWS V14.01,2013-08-28 11:38:00,
2013-08-28 07:44:00,63.7,63.7,29.92,East,100,2.5,2.5,100,0.00,,,0.00,VWS V14.01,2013-08-28 11:44:00,
2013-08-28 07:50:00,63.9,63.9,29.91,East,100,2.5,2.5,100,0.00,,,0.00,VWS V14.01,2013-08-28 11:50:00,
2013-08-28 07:56:00,64.2,64.2,29.91,East,100,2.5,2.5,100,0.00,,,0.00,VWS V14.01,2013-08-28 11:56:00,
2013-08-28 08:02:00,64.0,64.0,29.91,East,100,2.5,2.5,100,0.00,,,0.00,VWS V14.01,2013-08-28 12:02:00,
2013-08-28 08:08:00,64.5,64.5,29.91,East,100,2.5,2.5,100,0.00,,,0.00,VWS V14.01,2013-08-28 12:08:00,
2013-08-28 08:14:00,64.5,64.5,29.91,East,100,2.5,2.5,100,0.00,,,0.00,VWS V14.01,2013-08-28 12:14:00,
2013-08-28 08:20:00,64.6,64.6,29.91,SE,135,2.5,2.5,100,0.00,,,0.00,VWS V14.01,2013-08-28 12:20:00,
2013-08-28 08:26:00,65.3,65.3,29.91,SE,135,2.5,2.5,100,0.00,,,0.00,VWS V14.01,2013-08-28 12:26:00,
2013-08-28 08:32:00,65.7,65.7,29.91,SE,135,2.5,2.5,100,0.00,,,0.00,VWS V14.01,2013-08-28 12:32:00,
2013-08-28 08:38:00,65.8,65.8,29.91,SE,141,4.7,4.7,100,0.00,,,0.00,VWS V14.01,2013-08-28 12:38:00,
2013-08-28 08:44:00,65.5,65.5,29.91,ESE,122,2.5,2.5,100,0.00,,,0.00,VWS V14.01,2013-08-28 12:44:00,
2013-08-28 08:50:00,65.1,65.1,29.91,North,4,2.5,2.5,100,0.00,,,0.00,VWS V14.01,2013-08-28 12:50:00,
2013-08-28 08:56:00,66.7,66.7,29.91,North,4,2.5,2.5,100,0.00,,,0.00,VWS V14.01,2013-08-28 12:56:00,
2013-08-28 09:02:00,67.2,67.2,29.91,North,4,2.5,2.5,100,0.00,,,0.00,VWS V14.01,2013-08-28 13:02:00,
2013-08-28 09:08:00,66.9,66.9,29.91,NNW,336,3.2,4.8,100,0.00,,,0.00,VWS V14.01,2013-08-28 13:08:00,
2013-08-28 09:14:00,66.5,66.5,29.91,NNW,336,2.5,2.5,100,0.00,,,0.00,VWS V14.01,2013-08-28 13:14:00,
2013-08-28 09:20:00,66.2,66.2,29.91,NNE,17,4.4,5.2,100,0.00,,,0.00,VWS V14.01,2013-08-28 13:20:00,
2013-08-28 09:26:00,68.4,68.4,29.91,SE,135,4.8,5.6,100,0.00,,,0.00,VWS V14.01,2013-08-28 13:26:00,
2013-08-28 09:32:00,69.0,69.0,29.91,SSE,167,5.7,9.0,100,0.00,,,0.00,VWS V14.01,2013-08-28 13:32:00,
2013-08-28 09:38:00,68.5,68.5,29.91,South,173,5.3,8.3,100,0.00,,,0.00,VWS V14.01,2013-08-28 13:38:00,
2013-08-28 09:44:00,68.4,68.4,29.91,East,93,5.0,7.2,100,0.00,,,0.00,VWS V14.01,2013-08-28 13:44:00,
2013-08-28 09:50:00,67.8,67.8,29.92,SSE,166,2.5,2.5,100,0.00,,SCT250,0.00,VWS V14.01,2013-08-28 13:50:00,
2013-08-28 09:56:00,67.1,67.1,29.92,SE,135,2.5,5.4,100,0.00,,SCT250,0.00,VWS V14.01,2013-08-28 13:56:00,
2013-08-28 10:02:00,67.6,67.6,29.92,ENE,62,2.5,6.5,100,0.00,,SCT250,0.00,VWS V14.01,2013-08-28 14:02:00,
2013-08-28 10:08:00,67.4,67.4,29.92,SE,139,5.2,6.2,100,0.00,,SCT250,0.00,VWS V14.01,2013-08-28 14:08:00,
2013-08-28 10:14:00,66.7,66.7,29.92,North,353,3.6,5.2,100,0.00,,SCT250,0.00,VWS V14.01,2013-08-28 14:14:00,
2013-08-28 10:20:00,67.0,67.0,29.92,SE,142,2.5,3.4,100,0.00,,SCT250,0.00,VWS V14.01,2013-08-28 14:20:00,
2013-08-28 10:26:00,67.5,67.5,29.92,NE,35,2.5,4.5,100,0.00,,SCT250,0.00,VWS V14.01,2013-08-28 14:26:00,
2013-08-28 10:32:00,67.1,67.1,29.92,North,10,4.7,5.1,100,0.00,,SCT250,0.00,VWS V14.01,2013-08-28 14:32:00,
2013-08-28 10:38:00,67.7,67.7,29.92,ESE,115,3.4,5.4,100,0.00,,SCT250,0.00,VWS V14.01,2013-08-28 14:38:00,
2013-08-28 10:44:00,67.8,67.8,29.92,North,352,2.8,4.7,100,0.00,,SCT250,0.00,VWS V14.01,2013-08-28 14:44:00,
2013-08-28 10:50:00,69.0,69.0,29.92,NW,308,2.5,5.3,100,0.00,,SCT250,0.00,VWS V14.01,2013-08-28 14:50:00,
2013-08-28 10:56:00,69.3,69.3,29.92,SSE,167,5.7,8.6,100,0.00,,SCT250,0.00,VWS V14.01,2013-08-28 14:56:00,
2013-08-28 11:02:00,69.5,69.5,29.92,ENE,70,4.2,7.2,100,0.00,,SCT250,0.00,VWS V14.01,2013-08-28 15:02:00,
2013-08-28 11:08:00,69.5,69.5,29.92,ESE,110,2.5,4.4,100,0.00,,SCT250,0.00,VWS V14.01,2013-08-28 15:08:00,
2013-08-28 11:14:00,71.2,71.2,29.92,SSE,152,2.5,2.5,100,0.00,,SCT250,0.00,VWS V14.01,2013-08-28 15:14:00,
2013-08-28 11:20:00,71.7,71.7,29.92,NE,46,3.1,6.2,100,0.00,,SCT250,0.00,VWS V14.01,2013-08-28 15:20:00,
2013-08-28 11:26:00,73.7,73.3,29.92,East,94,4.2,8.4,99,0.00,,SCT250,0.00,VWS V14.01,2013-08-28 15:26:00,
2013-08-28 11:32:00,72.2,72.2,29.92,SE,138,3.4,8.4,100,0.00,,SCT250,0.00,VWS V14.01,2013-08-28 15:32:00,
2013-08-28 11:38:00,72.1,72.1,29.92,SE,131,6.8,6.8,100,0.00,,SCT250,0.00,VWS V14.01,2013-08-28 15:38:00,
2013-08-28 11:44:00,72.5,72.3,29.92,ESE,112,5.0,7.2,99,0.00,,SCT250,0.00,VWS V14.01,2013-08-28 15:44:00,
2013-08-28 11:50:00,71.7,71.7,29.91,ESE,118,5.7,8.3,100,0.00,,SCT250,0.00,VWS V14.01,2013-08-28 15:50:00,
2013-08-28 11:56:00,74.2,73.7,29.91,SE,138,6.4,8.7,98,0.00,,SCT250,0.00,VWS V14.01,2013-08-28 15:56:00,
2013-08-28 12:02:00,72.7,72.3,29.92,SSE,165,6.4,7.0,99,0.00,,FEW030,0.00,VWS V14.01,2013-08-28 16:02:00,
2013-08-28 12:08:00,73.5,72.9,29.92,SSE,153,7.2,7.4,98,0.00,,FEW030,0.00,VWS V14.01,2013-08-28 16:08:00,
2013-08-28 12:14:00,72.6,72.4,29.92,NNE,31,4.6,8.7,99,0.00,,FEW030,0.00,VWS V14.01,2013-08-28 16:14:00,
2013-08-28 12:20:00,72.3,72.2,29.92,NE,34,4.4,8.8,100,0.00,,FEW030,0.00,VWS V14.01,2013-08-28 16:20:00,
2013-08-28 12:26:00,71.5,71.5,29.92,ENE,76,4.4,5.7,100,0.00,,FEW030,0.00,VWS V14.01,2013-08-28 16:26:00,
2013-08-28 12:32:00,72.3,72.2,29.91,North,356,4.9,5.4,100,0.00,,FEW030,0.00,VWS V14.01,2013-08-28 16:32:00,
2013-08-28 12:38:00,72.4,72.4,29.91,ENE,69,5.0,5.0,100,0.00,,FEW030,0.00,VWS V14.01,2013-08-28 16:38:00,
2013-08-28 12:44:00,74.4,73.7,29.92,SE,125,3.2,8.0,98,0.00,,FEW030,0.00,VWS V14.01,2013-08-28 16:44:00,
2013-08-28 12:50:00,74.8,74.1,29.92,SE,146,3.3,5.7,98,0.00,,FEW030,0.00,VWS V14.01,2013-08-28 16:50:00,
2013-08-28 12:56:00,75.2,73.7,29.92,South,177,7.3,8.5,95,0.00,,FEW030,0.00,VWS V14.01,2013-08-28 16:56:00,
2013-08-28 13:02:00,76.9,75.3,29.92,SSE,156,8.2,8.7,95,0.00,,FEW030,0.00,VWS V14.01,2013-08-28 17:02:00,
2013-08-28 13:08:00,77.4,74.8,29.91,SE,142,6.8,6.9,92,0.00,,FEW030,0.00,VWS V14.01,2013-08-28 17:08:00,
2013-08-28 13:14:00,76.4,73.3,29.92,ENE,73,4.4,6.0,90,0.00,,FEW030,0.00,VWS V14.01,2013-08-28 17:14:00,
2013-08-28 13:20:00,75.7,73.8,29.91,NNE,32,3.1,7.2,94,0.00,,FEW030,0.00,VWS V14.01,2013-08-28 17:20:00,
2013-08-28 13:26:00,73.3,72.4,29.91,NW,308,4.7,5.9,97,0.00,,FEW030,0.00,VWS V14.01,2013-08-28 17:26:00,
2013-08-28 13:32:00,76.0,74.0,29.91,SSE,153,8.0,9.4,94,0.00,,FEW030,0.00,VWS V14.01,2013-08-28 17:32:00,
2013-08-28 13:38:00,74.0,72.8,29.91,NNW,346,4.4,5.6,96,0.00,,FEW030,0.00,VWS V14.01,2013-08-28 17:38:00,
2013-08-28 13:44:00,74.5,73.2,29.91,SE,129,3.4,10.4,96,0.00,,FEW030,0.00,VWS V14.01,2013-08-28 17:44:00,
2013-08-28 13:50:00,75.4,74.0,29.91,SE,146,5.0,10.5,96,0.00,,FEW030,0.00,VWS V14.01,2013-08-28 17:50:00,
2013-08-28 13:56:00,74.2,73.5,29.90,ENE,77,4.7,4.7,98,0.00,,FEW030,0.00,VWS V14.01,2013-08-28 17:56:00,
2013-08-28 14:02:00,75.0,73.6,29.90,SSE,162,5.4,7.0,96,0.00,,SCT250,0.00,VWS V14.01,2013-08-28 18:02:00,
2013-08-28 14:08:00,76.7,74.3,29.90,NNE,31,4.2,8.6,92,0.00,,SCT250,0.00,VWS V14.01,2013-08-28 18:08:00,
2013-08-28 14:14:00,75.7,74.0,29.90,SE,135,6.9,10.2,94,0.00,,SCT250,0.00,VWS V14.01,2013-08-28 18:14:00,
2013-08-28 14:20:00,76.4,73.4,29.90,SE,131,8.0,9.3,90,0.00,,SCT250,0.00,VWS V14.01,2013-08-28 18:20:00,
2013-08-28 14:26:00,73.2,72.7,29.90,ESE,121,4.4,5.5,98,0.00,,SCT250,0.00,VWS V14.01,2013-08-28 18:26:00,
2013-08-28 14:32:00,72.0,72.0,29.90,ESE,111,3.1,8.0,100,0.00,,SCT250,0.00,VWS V14.01,2013-08-28 18:32:00,
2013-08-28 14:38:00,71.4,71.4,29.90,SE,128,2.9,6.8,100,0.00,,SCT250,0.00,VWS V14.01,2013-08-28 18:38:00,
2013-08-28 14:44:00,70.5,70.5,29.90,North,6,4.2,5.6,100,0.00,,SCT250,0.00,VWS V14.01,2013-08-28 18:44:00,
2013-08-28 14:50:00,69.9,69.9,29.90,ENE,72,3.1,4.9,100,0.00,,SCT250,0.00,VWS V14.01,2013-08-28 18:50:00,
2013-08-28 14:56:00,70.4,70.4,29.89,South,184,2.7,5.3,100,0.00,,SCT250,0.00,VWS V14.01,2013-08-28 18:56:00,
2013-08-28 15:02:00,70.1,70.1,29.89,SSE,153,7.2,7.2,100,0.00,,BKN250,0.00,VWS V14.01,2013-08-28 19:02:00,
2013-08-28 15:08:00,71.1,71.1,29.89,SSE,150,4.2,7.0,100,0.00,,BKN250,0.00,VWS V14.01,2013-08-28 19:08:00,
2013-08-28 15:14:00,70.6,70.6,29.89,NNE,13,3.5,5.5,100,0.00,,BKN250,0.00,VWS V14.01,2013-08-28 19:14:00,
2013-08-28 15:20:00,69.8,69.8,29.89,ENE,68,2.9,5.4,100,0.00,,BKN250,0.00,VWS V14.01,2013-08-28 19:20:00,
2013-08-28 15:26:00,70.5,70.5,29.89,SSE,158,5.7,7.1,100,0.00,,BKN250,0.00,VWS V14.01,2013-08-28 19:26:00,
2013-08-28 15:32:00,69.5,69.5,29.89,NNE,17,5.4,5.5,100,0.00,,BKN250,0.00,VWS V14.01,2013-08-28 19:32:00,
2013-08-28 15:38:00,69.5,69.5,29.89,ENE,77,4.9,5.6,100,0.00,,BKN250,0.00,VWS V14.01,2013-08-28 19:38:00,
2013-08-28 15:44:00,70.6,70.6,29.89,East,90,3.9,7.7,100,0.00,,BKN250,0.00,VWS V14.01,2013-08-28 19:44:00,
2013-08-28 15:50:00,68.7,68.7,29.89,ENE,69,4.0,5.0,100,0.00,,,0.00,VWS V14.01,2013-08-28 19:50:00,
2013-08-28 15:56:00,69.7,69.7,29.89,SSE,153,6.9,7.7,100,0.00,,,0.00,VWS V14.01,2013-08-28 19:56:00,
2013-08-28 16:02:00,69.6,69.6,29.89,South,188,2.5,6.7,100,0.00,,,0.00,VWS V14.01,2013-08-28 20:02:00,
2013-08-28 16:08:00,69.0,69.0,29.89,ESE,115,5.2,8.1,100,0.00,,,0.00,VWS V14.01,2013-08-28 20:08:00,
2013-08-28 16:14:00,69.1,69.1,29.89,SSE,150,7.7,7.9,100,0.00,,,0.00,VWS V14.01,2013-08-28 20:14:00,
2013-08-28 16:20:00,68.4,68.4,29.89,NE,53,3.8,5.0,100,0.00,,,0.00,VWS V14.01,2013-08-28 20:20:00,
2013-08-28 16:26:00,68.2,68.2,29.89,SSE,152,7.5,8.1,100,0.00,,,0.00,VWS V14.01,2013-08-28 20:26:00,
2013-08-28 16:32:00,67.9,67.9,29.89,SE,127,5.0,5.6,100,0.00,,,0.00,VWS V14.01,2013-08-28 20:32:00,
2013-08-28 16:38:00,67.5,67.5,29.90,SE,141,4.1,7.9,100,0.00,,,0.00,VWS V14.01,2013-08-28 20:38:00,
2013-08-28 16:44:00,67.8,67.8,29.90,ESE,112,3.3,6.2,100,0.00,,,0.00,VWS V14.01,2013-08-28 20:44:00,
2013-08-28 16:50:00,67.5,67.5,29.90,NE,34,3.6,7.1,100,0.00,,,0.00,VWS V14.01,2013-08-28 20:50:00,
2013-08-28 16:56:00,68.0,68.0,29.90,South,169,3.3,5.8,100,0.00,,,0.00,VWS V14.01,2013-08-28 20:56:00,
2013-08-28 17:02:00,67.4,67.4,29.91,South,183,3.2,7.1,100,0.00,,,0.00,VWS V14.01,2013-08-28 21:02:00,
2013-08-28 17:08:00,67.0,67.0,29.91,SSE,153,4.4,5.2,100,0.00,,,0.00,VWS V14.01,2013-08-28 21:08:00,
2013-08-28 17:14:00,67.2,67.2,29.91,SSE,150,3.7,5.9,100,0.00,,,0.00,VWS V14.01,2013-08-28 21:14:00,
2013-08-28 17:20:00,67.4,67.4,29.91,SSE,148,5.5,7.1,100,0.00,,,0.00,VWS V14.01,2013-08-28 21:20:00,
2013-08-28 17:26:00,67.0,67.0,29.91,East,98,4.4,7.2,100,0.00,,,0.00,VWS V14.01,2013-08-28 21:26:00,
2013-08-28 17:32:00,66.5,66.5,29.91,SSE,165,6.0,8.2,100,0.00,,,0.00,VWS V14.01,2013-08-28 21:32:00,
2013-08-28 17:38:00,65.6,65.6,29.91,NNE,30,2.5,2.5,100,0.00,,,0.00,VWS V14.01,2013-08-28 21:38:00,
2013-08-28 17:44:00,65.2,65.2,29.91,NNE,30,2.5,2.5,100,0.00,,,0.00,VWS V14.01,2013-08-28 21:44:00,
2013-08-28 17:50:00,65.7,65.7,29.92,SSE,153,3.1,4.6,100,0.00,,,0.00,VWS V14.01,2013-08-28 21:50:00,
2013-08-28 17:56:00,66.1,66.1,29.91,SSE,163,4.9,6.1,100,0.00,,,0.00,VWS V14.01,2013-08-28 21:56:00,
2013-08-28 18:02:00,66.0,66.0,29.91,SE,138,4.2,6.2,100,0.00,,,0.00,VWS V14.01,2013-08-28 22:02:00,
2013-08-28 18:08:00,65.8,65.8,29.91,SSE,149,3.4,5.6,100,0.00,,,0.00,VWS V14.01,2013-08-28 22:08:00,
2013-08-28 18:14:00,65.4,65.4,29.91,South,169,2.9,5.1,100,0.00,,,0.00,VWS V14.01,2013-08-28 22:14:00,
2013-08-28 18:20:00,65.4,65.4,29.91,NE,51,2.5,2.5,100,0.00,,,0.00,VWS V14.01,2013-08-28 22:20:00,
2013-08-28 18:26:00,65.6,65.6,29.90,NE,51,2.5,2.5,100,0.00,,,0.00,VWS V14.01,2013-08-28 22:26:00,
2013-08-28 18:32:00,65.1,65.1,29.90,NE,51,2.5,2.5,100,0.00,,,0.00,VWS V14.01,2013-08-28 22:32:00,
2013-08-28 18:38:00,65.1,65.1,29.91,NE,51,2.5,2.5,100,0.00,,,0.00,VWS V14.01,2013-08-28 22:38:00,
2013-08-28 18:44:00,65.2,65.2,29.91,ESE,118,2.5,2.5,100,0.00,,,0.00,VWS V14.01,2013-08-28 22:44:00,
2013-08-28 18:50:00,65.3,65.3,29.91,East,84,3.2,4.3,100,0.00,,,0.00,VWS V14.01,2013-08-28 22:50:00,
2013-08-28 18:56:00,64.8,64.8,29.92,East,84,2.5,2.8,100,0.00,,,0.00,VWS V14.01,2013-08-28 22:56:00,
2013-08-28 19:02:00,64.5,64.5,29.92,East,84,2.5,2.5,100,0.00,,,0.00,VWS V14.01,2013-08-28 23:02:00,
2013-08-28 19:08:00,64.7,64.7,29.92,ESE,120,3.5,4.7,100,0.00,,,0.00,VWS V14.01,2013-08-28 23:08:00,
2013-08-28 19:14:00,64.2,64.2,29.92,SE,125,2.5,2.5,100,0.00,,,0.00,VWS V14.01,2013-08-28 23:14:00,
2013-08-28 19:20:00,64.2,64.2,29.92,SE,125,2.5,2.5,100,0.00,,,0.00,VWS V14.01,2013-08-28 23:20:00,
2013-08-28 19:26:00,64.3,64.3,29.92,SE,129,2.5,2.5,100,0.00,,,0.00,VWS V14.01,2013-08-28 23:26:00,
2013-08-28 19:32:00,63.9,63.9,29.92,SE,129,2.5,2.5,100,0.00,,,0.00,VWS V14.01,2013-08-28 23:32:00,
2013-08-28 19:38:00,63.8,63.8,29.92,ENE,58,3.2,4.1,100,0.00,,,0.00,VWS V14.01,2013-08-28 23:38:00,
2013-08-28 19:44:00,63.3,63.3,29.93,NE,56,2.5,2.5,100,0.00,,,0.00,VWS V14.01,2013-08-28 23:44:00,
2013-08-28 19:50:00,63.9,63.9,29.93,NE,56,2.5,2.5,100,0.00,,,0.00,VWS V14.01,2013-08-28 23:50:00,
2013-08-28 19:56:00,64.0,64.0,29.93,SSE,155,4.7,5.0,100,0.00,,,0.00,VWS V14.01,2013-08-28 23:56:00,
2013-08-28 20:02:00,63.8,63.8,29.93,SE,124,2.5,2.5,100,0.00,,,0.00,VWS V14.01,2013-08-29 00:02:00,
2013-08-28 20:08:00,63.9,63.9,29.94,East,82,2.5,7.2,100,0.00,,,0.00,VWS V14.01,2013-08-29 00:08:00,
2013-08-28 20:14:00,63.6,63.6,29.94,SE,135,5.5,7.0,100,0.00,,,0.00,VWS V14.01,2013-08-29 00:14:00,
2013-08-28 20:20:00,63.7,63.7,29.93,NE,56,2.5,4.2,100,0.00,,,0.00,VWS V14.01,2013-08-29 00:20:00,
2013-08-28 20:26:00,63.6,63.6,29.94,ESE,114,4.1,7.3,100,0.00,,,0.00,VWS V14.01,2013-08-29 00:26:00,
2013-08-28 20:32:00,63.3,63.3,29.94,SE,138,3.7,7.0,100,0.00,,,0.00,VWS V14.01,2013-08-29 00:32:00,
2013-08-28 20:38:00,63.1,63.1,29.94,SE,134,3.6,5.8,100,0.00,,,0.00,VWS V14.01,2013-08-29 00:38:00,
2013-08-28 20:44:00,63.2,63.2,29.94,ESE,117,2.5,2.5,100,0.00,,,0.00,VWS V14.01,2013-08-29 00:44:00,
2013-08-28 20:50:00,63.3,63.3,29.95,East,96,2.5,5.5,100,0.00,,,0.00,VWS V14.01,2013-08-29 00:50:00,
2013-08-28 20:56:00,63.2,63.2,29.95,SE,146,2.5,2.5,100,0.00,,,0.00,VWS V14.01,2013-08-29 00:56:00,
2013-08-28 21:02:00,63.1,63.1,29.95,ESE,121,2.5,2.5,100,0.00,,,0.00,VWS V14.01,2013-08-29 01:02:00,
2013-08-28 21:08:00,63.3,63.3,29.95,SE,131,2.5,2.5,100,0.00,,,0.00,VWS V14.01,2013-08-29 01:08:00,
2013-08-28 21:14:00,63.1,63.1,29.95,SE,145,2.5,4.9,100,0.00,,,0.00,VWS V14.01,2013-08-29 01:14:00,
2013-08-28 21:20:00,63.1,63.1,29.94,East,86,3.8,7.4,100,0.00,,,0.00,VWS V14.01,2013-08-29 01:20:00,
2013-08-28 21:26:00,63.0,63.0,29.95,NE,45,2.5,2.5,100,0.00,,,0.00,VWS V14.01,2013-08-29 01:26:00,
2013-08-28 21:32:00,63.0,63.0,29.95,SSE,160,7.4,8.3,100,0.00,,,0.00,VWS V14.01,2013-08-29 01:32:00,
2013-08-28 21:38:00,63.1,63.1,29.95,East,86,2.5,7.7,100,0.00,,,0.00,VWS V14.01,2013-08-29 01:38:00,
2013-08-28 21:44:00,63.1,63.1,29.95,East,86,2.5,2.5,100,0.00,,,0.00,VWS V14.01,2013-08-29 01:44:00,
2013-08-28 21:50:00,63.3,63.3,29.95,ESE,122,3.5,3.6,100,0.00,,,0.00,VWS V14.01,2013-08-29 01:50:00,
2013-08-28 21:56:00,63.3,63.3,29.95,ENE,70,2.5,2.5,100,0.00,,,0.00,VWS V14.01,2013-08-29 01:56:00,
2013-08-28 22:02:00,63.4,63.4,29.96,East,87,2.5,6.0,100,0.00,,,0.00,VWS V14.01,2013-08-29 02:02:00,
2013-08-28 22:08:00,62.9,62.9,29.96,East,87,2.5,2.5,100,0.00,,,0.00,VWS V14.01,2013-08-29 02:08:00,
2013-08-28 22:14:00,63.3,63.3,29.96,SE,124,2.5,5.0,100,0.00,,,0.00,VWS V14.01,2013-08-29 02:14:00,
2013-08-28 22:20:00,63.2,63.2,29.96,SE,124,2.5,2.5,100,0.00,,,0.00,VWS V14.01,2013-08-29 02:20:00,
2013-08-28 22:26:00,63.3,63.3,29.96,ESE,115,3.5,5.4,100,0.00,,,0.00,VWS V14.01,2013-08-29 02:26:00,
2013-08-28 22:32:00,63.2,63.2,29.96,East,82,2.5,2.5,100,0.00,,,0.00,VWS V14.01,2013-08-29 02:32:00,
2013-08-28 22:38:00,63.3,63.3,29.97,East,82,2.5,2.5,100,0.00,,,0.00,VWS V14.01,2013-08-29 02:38:00,
2013-08-28 22:44:00,63.0,63.0,29.97,East,82,2.5,2.5,100,0.00,,,0.00,VWS V14.01,2013-08-29 02:44:00,
2013-08-28 22:50:00,63.1,63.1,29.97,SE,131,2.5,6.2,100,0.00,,,0.00,VWS V14.01,2013-08-29 02:50:00,
2013-08-28 22:56:00,63.0,63.0,29.97,SE,131,2.5,2.5,100,0.00,,,0.00,VWS V14.01,2013-08-29 02:56:00,
2013-08-28 23:02:00,63.0,63.0,29.97,SE,131,2.5,2.5,100,0.00,,,0.00,VWS V14.01,2013-08-29 03:02:00,
2013-08-28 23:08:00,62.9,62.9,29.97,SE,131,2.5,2.5,100,0.00,,,0.00,VWS V14.01,2013-08-29 03:08:00,
2013-08-28 23:14:00,62.8,62.8,29.98,SE,131,2.5,2.5,100,0.00,,,0.00,VWS V14.01,2013-08-29 03:14:00,
2013-08-28 23:20:00,63.0,63.0,29.98,NE,39,2.5,6.1,100,0.00,,,0.00,VWS V14.01,2013-08-29 03:20:00,
2013-08-28 23:26:00,62.8,62.8,29.98,East,94,2.5,3.4,100,0.00,,,0.00,VWS V14.01,2013-08-29 03:26:00,
2013-08-28 23:32:00,62.9,62.9,29.98,WNW,301,2.5,3.9,100,0.00,,,0.00,VWS V14.01,2013-08-29 03:32:00,
2013-08-28 23:38:00,62.8,62.8,29.98,SSE,148,3.2,4.4,100,0.00,,,0.00,VWS V14.01,2013-08-29 03:38:00,
2013-08-28 23:44:00,63.0,63.0,29.98,SSE,148,2.5,2.5,100,0.00,,,0.00,VWS V14.01,2013-08-29 03:44:00,
2013-08-28 23:50:00,62.8,62.8,29.98,NNE,31,3.9,6.0,100,0.00,,,0.00,VWS V14.01,2013-08-29 03:50:00,